createdAt,value
2017-06-03T00:00:16.044Z,0
2017-06-03T00:02:40.377Z,0
2017-06-03T00:05:04.673Z,0
2017-06-03T00:07:29.052Z,0
2017-06-03T00:09:39.165Z,0
2017-06-03T00:11:55.037Z,0
2017-06-03T00:14:11.897Z,0
2017-06-03T00:16:27.792Z,0
2017-06-03T00:18:35.130Z,0
2017-06-03T00:20:59.470Z,0
2017-06-03T00:23:23.752Z,0
2017-06-03T00:25:48.059Z,0
2017-06-03T00:28:12.432Z,0
2017-06-03T00:30:36.740Z,0
2017-06-03T00:33:00.999Z,0
2017-06-03T00:35:25.285Z,0
2017-06-03T00:37:49.568Z,0
2017-06-03T00:40:13.861Z,0
2017-06-03T00:42:38.034Z,0
2017-06-03T00:44:53.828Z,0
2017-06-03T00:47:18.113Z,0
2017-06-03T00:49:42.403Z,0
2017-06-03T00:51:58.190Z,0
2017-06-03T00:54:22.473Z,0
2017-06-03T00:56:32.939Z,0
2017-06-03T00:58:57.221Z,0
2017-06-03T01:01:21.505Z,0
2017-06-03T01:03:45.794Z,0
2017-06-03T01:06:10.077Z,0
2017-06-03T01:08:20.530Z,0
2017-06-03T01:10:44.831Z,0
2017-06-03T01:13:09.119Z,0
2017-06-03T01:15:24.892Z,0
2017-06-03T01:17:49.067Z,0
2017-06-03T01:20:13.253Z,0
2017-06-03T01:22:37.434Z,0
2017-06-03T01:25:01.632Z,0
2017-06-03T01:27:25.816Z,0
2017-06-03T01:29:50.116Z,0
2017-06-03T01:32:14.287Z,0
2017-06-03T01:34:38.473Z,0
2017-06-03T01:37:02.765Z,0
2017-06-03T01:39:27.047Z,0
2017-06-03T01:41:42.825Z,0
2017-06-03T01:44:07.008Z,0
2017-06-03T01:46:31.202Z,0
2017-06-03T01:48:55.383Z,0
2017-06-03T01:51:19.563Z,0
2017-06-03T01:53:35.305Z,0
2017-06-03T01:55:42.585Z,0
2017-06-03T01:58:06.826Z,0
2017-06-03T02:00:31.018Z,0
2017-06-03T02:02:46.862Z,0
2017-06-03T02:05:02.637Z,0
2017-06-03T02:07:12.680Z,0
2017-06-03T02:09:36.924Z,0
2017-06-03T02:12:01.115Z,0
2017-06-03T02:16:27.293Z,0
2017-06-03T02:18:51.541Z,0
2017-06-03T02:21:15.726Z,0
2017-06-03T02:23:31.466Z,0
2017-06-03T02:25:55.700Z,0
2017-06-03T02:28:19.889Z,0
2017-06-03T02:30:35.626Z,0
2017-06-03T02:32:45.664Z,0
2017-06-03T02:35:09.911Z,0
2017-06-03T02:37:34.091Z,0
2017-06-03T02:41:59.704Z,0
2017-06-03T02:44:23.906Z,0
2017-06-03T02:46:48.086Z,0
2017-06-03T02:49:12.267Z,0
2017-06-03T02:51:36.438Z,4
2017-06-03T02:54:00.623Z,4
2017-06-03T02:56:24.816Z,0
2017-06-03T02:58:48.895Z,4
2017-06-03T03:01:04.586Z,4
2017-06-03T03:03:28.656Z,8
2017-06-03T03:05:52.741Z,8
2017-06-03T03:08:16.824Z,12
2017-06-03T03:10:40.899Z,16
2017-06-03T03:12:56.548Z,24
2017-06-03T03:15:12.231Z,32
2017-06-03T03:17:36.385Z,40
2017-06-03T03:20:00.556Z,52
2017-06-03T03:22:24.744Z,68
2017-06-03T03:24:48.901Z,88
2017-06-03T03:27:13.092Z,104
2017-06-03T03:29:37.169Z,124
2017-06-03T03:32:01.262Z,156
2017-06-03T03:34:25.338Z,192
2017-06-03T03:36:49.544Z,236
2017-06-03T03:41:14.989Z,316
2017-06-03T03:43:39.142Z,364
2017-06-03T03:46:03.224Z,416
2017-06-03T03:48:27.418Z,464
2017-06-03T03:50:51.607Z,536
2017-06-03T03:53:15.774Z,620
2017-06-03T03:55:39.981Z,712
2017-06-03T03:57:49.927Z,776
2017-06-03T04:00:05.662Z,844
2017-06-03T04:02:21.359Z,920
2017-06-03T04:04:45.599Z,960
2017-06-03T04:07:09.872Z,1040
2017-06-03T04:09:34.177Z,1136
2017-06-03T04:11:58.466Z,1180
2017-06-03T04:14:22.754Z,1200
2017-06-03T04:16:47.039Z,1248
2017-06-03T04:19:11.325Z,1308
2017-06-03T04:21:35.622Z,1372
2017-06-03T04:23:59.903Z,1488
2017-06-03T04:26:24.300Z,1908
2017-06-03T04:30:50.209Z,2176
2017-06-03T04:35:08.269Z,2400
2017-06-03T04:37:24.516Z,2608
2017-06-03T04:39:49.309Z,2620
2017-06-03T04:42:14.128Z,2964
2017-06-03T04:44:30.662Z,3240
2017-06-03T04:46:55.674Z,3396
2017-06-03T04:49:20.792Z,3568
2017-06-03T04:51:37.514Z,4124
2017-06-03T04:54:02.762Z,4304
2017-06-03T04:56:19.552Z,4192
2017-06-03T04:58:44.993Z,4464
2017-06-03T05:01:10.530Z,4508
2017-06-03T05:03:21.402Z,4116
2017-06-03T05:05:47.078Z,4576
2017-06-03T05:08:12.781Z,4616
2017-06-03T05:10:38.519Z,5108
2017-06-03T05:13:04.249Z,5700
2017-06-03T05:15:30.031Z,5676
2017-06-03T05:17:55.802Z,4756
2017-06-03T05:20:21.752Z,5900
2017-06-03T05:22:47.688Z,6364
2017-06-03T05:25:13.843Z,6936
2017-06-03T05:27:39.924Z,7408
2017-06-03T05:30:06.106Z,7448
2017-06-03T05:32:32.428Z,6664
2017-06-03T05:34:58.882Z,7372
2017-06-03T05:37:25.381Z,8500
2017-06-03T05:39:51.848Z,8908
2017-06-03T05:42:18.512Z,8620
2017-06-03T05:44:45.130Z,8628
2017-06-03T05:47:11.835Z,9368
2017-06-03T05:49:38.578Z,10728
2017-06-03T05:52:05.469Z,11332
2017-06-03T05:54:32.437Z,9604
2017-06-03T05:56:59.414Z,10580
2017-06-03T05:59:26.455Z,8776
2017-06-03T06:01:53.536Z,8760
2017-06-03T06:04:20.452Z,10096
2017-06-03T06:06:47.351Z,11292
2017-06-03T06:09:05.605Z,13732
2017-06-03T06:11:32.574Z,17344
2017-06-03T06:13:59.548Z,18656
2017-06-03T06:16:26.640Z,20256
2017-06-03T06:18:53.800Z,20896
2017-06-03T06:21:21.063Z,23104
2017-06-03T06:23:48.439Z,25216
2017-06-03T06:26:15.911Z,26592
2017-06-03T06:28:43.393Z,29312
2017-06-03T06:31:10.969Z,30400
2017-06-03T06:33:38.536Z,29696
2017-06-03T06:35:57.477Z,27168
2017-06-03T06:38:25.080Z,22656
2017-06-03T06:40:52.751Z,12448
2017-06-03T06:43:20.433Z,10328
2017-06-03T06:45:48.069Z,10356
2017-06-03T06:48:15.586Z,10432
2017-06-03T06:50:43.040Z,10676
2017-06-03T06:53:10.149Z,10796
2017-06-03T06:55:37.152Z,10924
2017-06-03T06:58:04.057Z,10796
2017-06-03T07:00:30.771Z,10652
2017-06-03T07:02:40.234Z,11268
2017-06-03T07:05:06.813Z,10680
2017-06-03T07:07:33.216Z,9820
2017-06-03T07:09:59.644Z,9200
2017-06-03T07:12:25.965Z,10564
2017-06-03T07:14:52.202Z,10512
2017-06-03T07:17:18.283Z,12012
2017-06-03T07:19:44.333Z,12540
2017-06-03T07:22:10.446Z,12116
2017-06-03T07:24:37.459Z,11652
2017-06-03T07:27:03.482Z,18432
2017-06-03T07:29:29.541Z,21792
2017-06-03T07:31:55.540Z,23072
2017-06-03T07:34:21.598Z,21696
2017-06-03T07:36:47.685Z,17088
2017-06-03T07:39:13.767Z,14776
2017-06-03T07:41:39.992Z,14960
2017-06-03T07:43:59.615Z,14224
2017-06-03T07:46:29.959Z,9112
2017-06-03T07:48:47.530Z,10212
2017-06-03T07:51:15.639Z,11664
2017-06-03T07:53:41.746Z,11444
2017-06-03T07:56:07.857Z,11752
2017-06-03T07:58:33.947Z,11468
2017-06-03T08:01:07.506Z,11580
2017-06-03T08:03:40.398Z,9436
2017-06-03T08:06:06.561Z,9704
2017-06-03T08:08:32.767Z,10500
2017-06-03T08:10:59.073Z,10684
2017-06-03T08:13:25.257Z,10376
2017-06-03T08:15:51.603Z,11608
2017-06-03T08:18:17.835Z,11608
2017-06-03T08:20:44.059Z,11712
2017-06-03T08:23:10.267Z,11668
2017-06-03T08:25:36.532Z,12272
2017-06-03T08:28:02.870Z,12160
2017-06-03T08:30:29.106Z,11816
2017-06-03T08:32:55.526Z,11692
2017-06-03T08:35:21.783Z,11832
2017-06-03T08:39:50.070Z,12124
2017-06-03T08:45:20.264Z,11940
2017-06-03T08:47:46.692Z,11644
2017-06-03T08:50:12.994Z,11108
2017-06-03T08:52:39.322Z,11192
2017-06-03T08:55:05.673Z,10072
2017-06-03T08:57:32.270Z,10224
2017-06-03T08:59:58.645Z,10196
2017-06-03T09:02:17.432Z,9844
2017-06-03T09:04:43.794Z,9936
2017-06-03T09:07:10.058Z,9776
2017-06-03T09:09:21.295Z,9732
2017-06-03T09:11:39.068Z,9576
2017-06-03T09:14:05.408Z,9384
2017-06-03T09:16:23.176Z,9276
2017-06-03T09:18:34.304Z,9096
2017-06-03T09:21:00.666Z,8832
2017-06-03T09:23:26.988Z,8608
2017-06-03T09:25:53.302Z,8380
2017-06-03T09:28:02.440Z,8284
2017-06-03T09:30:20.120Z,8260
2017-06-03T09:32:46.304Z,8140
2017-06-03T09:35:03.859Z,7876
2017-06-03T09:37:30.081Z,7940
2017-06-03T09:39:47.685Z,7860
2017-06-03T09:42:13.929Z,7700
2017-06-03T09:44:40.153Z,7572
2017-06-03T09:47:06.260Z,7344
2017-06-03T09:49:16.813Z,7460
2017-06-03T09:51:42.952Z,7352
2017-06-03T09:54:09.075Z,7076
2017-06-03T09:56:35.114Z,6972
2017-06-03T09:59:01.252Z,6948
2017-06-03T10:01:27.368Z,6792
2017-06-03T10:03:53.489Z,6568
2017-06-03T10:08:21.885Z,6176
2017-06-03T10:10:47.775Z,6020
2017-06-03T10:13:13.588Z,5888
2017-06-03T10:15:39.406Z,5688
2017-06-03T10:18:05.220Z,5260
2017-06-03T10:20:30.922Z,4912
2017-06-03T10:24:58.427Z,4228
2017-06-03T10:27:15.589Z,4036
2017-06-03T10:29:41.213Z,3908
2017-06-03T10:34:08.971Z,5600
2017-06-03T10:36:34.439Z,6140
2017-06-03T10:38:42.873Z,5916
2017-06-03T10:41:08.297Z,5532
2017-06-03T10:43:16.724Z,4740
2017-06-03T10:45:42.146Z,4008
2017-06-03T10:48:07.608Z,3708
2017-06-03T10:50:24.539Z,3388
2017-06-03T10:52:49.977Z,2936
2017-06-03T10:55:15.395Z,2880
2017-06-03T10:57:40.781Z,2968
2017-06-03T11:01:28.009Z,3128
2017-06-03T11:03:53.414Z,3188
2017-06-03T11:06:18.808Z,3212
2017-06-03T11:08:44.167Z,3208
2017-06-03T11:11:01.033Z,3172
2017-06-03T11:13:26.408Z,3128
2017-06-03T11:15:37.227Z,3116
2017-06-03T11:18:02.613Z,3116
2017-06-03T11:20:27.963Z,3160
2017-06-03T11:22:53.282Z,3224
2017-06-03T11:25:18.535Z,3276
2017-06-03T11:27:43.785Z,3388
2017-06-03T11:30:09.054Z,3492
2017-06-03T11:32:34.331Z,3672
2017-06-03T11:34:59.566Z,4096
2017-06-03T11:37:24.840Z,4632
2017-06-03T11:39:50.117Z,4944
2017-06-03T11:42:06.887Z,5032
2017-06-03T11:44:32.217Z,5040
2017-06-03T11:46:57.595Z,5096
2017-06-03T11:49:22.936Z,4988
2017-06-03T11:51:48.309Z,4844
2017-06-03T11:54:05.178Z,4436
2017-06-03T11:56:30.602Z,4304
2017-06-03T11:58:55.998Z,4308
2017-06-03T12:01:21.369Z,4184
2017-06-03T12:03:46.782Z,4072
2017-06-03T12:05:57.133Z,4036
2017-06-03T12:08:22.612Z,3988
2017-06-03T12:10:48.019Z,4048
2017-06-03T12:13:13.458Z,3952
2017-06-03T12:15:38.889Z,3880
2017-06-03T12:18:04.293Z,3708
2017-06-03T12:20:29.693Z,3532
2017-06-03T12:22:55.109Z,3076
2017-06-03T12:25:20.510Z,2932
2017-06-03T12:27:37.382Z,3012
2017-06-03T12:29:48.245Z,2976
2017-06-03T12:32:13.618Z,3348
2017-06-03T12:34:38.921Z,3976
2017-06-03T12:37:04.260Z,4340
2017-06-03T12:39:29.589Z,4456
2017-06-03T12:41:54.942Z,3996
2017-06-03T12:44:20.291Z,3720
2017-06-03T12:46:45.596Z,3860
2017-06-03T12:49:10.921Z,3996
2017-06-03T12:51:36.253Z,4472
2017-06-03T12:54:01.574Z,4240
2017-06-03T12:56:26.942Z,4328
2017-06-03T12:58:43.767Z,4152
2017-06-03T13:00:54.609Z,3984
2017-06-03T13:03:19.935Z,4080
2017-06-03T13:05:45.266Z,4160
2017-06-03T13:08:10.667Z,4260
2017-06-03T13:10:35.952Z,4620
2017-06-03T13:13:01.238Z,4756
2017-06-03T13:15:26.520Z,4700
2017-06-03T13:17:43.334Z,4716
2017-06-03T13:20:08.653Z,4736
2017-06-03T13:22:33.989Z,4776
2017-06-03T13:24:59.381Z,4860
2017-06-03T13:27:24.700Z,4820
2017-06-03T13:29:50.060Z,4660
2017-06-03T13:32:15.423Z,4804
2017-06-03T13:34:40.818Z,4508
2017-06-03T13:37:06.167Z,4244
2017-06-03T13:39:31.514Z,4032
2017-06-03T13:41:56.936Z,3840
2017-06-03T13:44:13.758Z,3512
2017-06-03T13:46:39.174Z,4076
2017-06-03T13:49:04.494Z,4228
2017-06-03T13:51:29.999Z,4224
2017-06-03T13:53:55.268Z,4096
2017-06-03T13:56:20.637Z,4036
2017-06-03T13:58:45.926Z,4004
2017-06-03T14:01:11.299Z,3460
2017-06-03T14:03:36.583Z,3384
2017-06-03T14:06:01.875Z,3376
2017-06-03T14:08:27.162Z,3284
2017-06-03T14:10:52.478Z,3260
2017-06-03T14:13:17.723Z,3172
2017-06-03T14:15:43.021Z,3160
2017-06-03T14:18:08.261Z,3080
2017-06-03T14:20:33.531Z,2968
2017-06-03T14:22:58.747Z,2988
2017-06-03T14:25:23.960Z,3440
2017-06-03T14:27:49.131Z,3400
2017-06-03T14:30:14.319Z,3556
2017-06-03T14:32:39.527Z,3576
2017-06-03T14:35:04.724Z,3264
2017-06-03T14:37:30.147Z,3032
2017-06-03T14:39:55.369Z,3016
2017-06-03T14:42:20.674Z,2988
2017-06-03T14:44:46.006Z,3008
2017-06-03T14:47:11.322Z,2964
2017-06-03T14:49:36.604Z,3128
2017-06-03T14:52:01.937Z,3076
2017-06-03T14:54:12.252Z,3128
2017-06-03T14:56:37.633Z,3040
2017-06-03T14:59:02.887Z,3008
2017-06-03T15:01:26.499Z,2976
2017-06-03T15:03:51.784Z,2888
2017-06-03T15:06:02.584Z,2852
2017-06-03T15:10:30.947Z,2768
2017-06-03T15:12:56.262Z,2648
2017-06-03T15:15:21.575Z,2568
2017-06-03T15:17:46.744Z,2548
2017-06-03T15:20:11.978Z,2488
2017-06-03T15:22:37.178Z,2496
2017-06-03T15:25:02.394Z,2480
2017-06-03T15:27:27.490Z,2428
2017-06-03T15:29:52.682Z,2340
2017-06-03T15:32:17.903Z,2276
2017-06-03T15:34:43.003Z,2224
2017-06-03T15:36:59.610Z,2172
2017-06-03T15:39:24.716Z,2092
2017-06-03T15:41:41.327Z,1980
2017-06-03T15:44:06.441Z,1876
2017-06-03T15:46:31.531Z,1808
2017-06-03T15:48:56.626Z,1764
2017-06-03T15:51:21.734Z,1704
2017-06-03T15:53:29.857Z,1620
2017-06-03T15:55:54.833Z,1508
2017-06-03T15:58:19.841Z,1332
2017-06-03T16:00:44.854Z,1160
2017-06-03T16:03:09.842Z,956
2017-06-03T16:05:34.852Z,784
2017-06-03T16:07:59.851Z,652
2017-06-03T16:10:24.872Z,580
2017-06-03T16:12:49.845Z,540
2017-06-03T16:15:14.768Z,508
2017-06-03T16:17:31.269Z,476
2017-06-03T16:19:56.275Z,440
2017-06-03T16:22:21.247Z,404
2017-06-03T16:24:31.927Z,376
2017-06-03T16:26:56.819Z,352
2017-06-03T16:29:21.714Z,340
2017-06-03T16:31:46.597Z,332
2017-06-03T16:34:11.392Z,336
2017-06-03T16:36:36.189Z,356
2017-06-03T16:39:00.981Z,380
2017-06-03T16:41:25.777Z,416
2017-06-03T16:43:50.461Z,452
2017-06-03T16:46:15.160Z,480
2017-06-03T16:48:39.855Z,484
2017-06-03T16:50:56.080Z,476
2017-06-03T16:53:20.729Z,524
2017-06-03T16:55:45.342Z,560
2017-06-03T17:00:11.936Z,596
2017-06-03T17:02:36.575Z,624
2017-06-03T17:06:54.725Z,664
2017-06-03T17:09:19.436Z,684
2017-06-03T17:11:44.027Z,672
2017-06-03T17:14:09.687Z,648
2017-06-03T17:18:10.620Z,632
2017-06-03T17:22:03.010Z,628
2017-06-03T17:24:35.808Z,612
2017-06-03T17:27:07.306Z,572
2017-06-03T17:29:40.819Z,540
2017-06-03T17:32:07.446Z,516
2017-06-03T17:35:59.797Z,508
2017-06-03T17:40:00.604Z,464
2017-06-03T17:44:01.484Z,404
2017-06-03T17:46:27.110Z,388
2017-06-03T17:48:43.358Z,388
2017-06-03T17:51:15.000Z,416
2017-06-03T17:53:39.687Z,216
2017-06-03T17:56:04.361Z,440
2017-06-03T17:58:29.064Z,428
2017-06-03T18:00:53.660Z,424
2017-06-03T18:03:09.764Z,416
2017-06-03T18:05:34.344Z,400
2017-06-03T18:07:58.955Z,384
2017-06-03T18:10:23.533Z,348
2017-06-03T18:12:48.127Z,296
2017-06-03T18:15:12.733Z,252
2017-06-03T18:17:28.917Z,232
2017-06-03T18:19:39.515Z,208
2017-06-03T18:22:04.091Z,208
2017-06-03T18:24:28.672Z,196
2017-06-03T18:26:36.291Z,176
2017-06-03T18:28:52.392Z,168
2017-06-03T18:31:16.960Z,152
2017-06-03T18:33:41.526Z,132
2017-06-03T18:35:57.680Z,112
2017-06-03T18:38:22.239Z,108
2017-06-03T18:40:46.824Z,100
2017-06-03T18:43:02.911Z,92
2017-06-03T18:45:27.505Z,88
2017-06-03T18:47:52.111Z,84
2017-06-03T18:50:08.251Z,88
2017-06-03T18:52:32.806Z,96
2017-06-03T18:54:57.382Z,100
2017-06-03T18:57:21.971Z,100
2017-06-03T18:59:46.462Z,96
2017-06-03T19:02:10.971Z,88
2017-06-03T19:04:35.533Z,80
2017-06-03T19:06:51.583Z,64
2017-06-03T19:09:16.134Z,44
2017-06-03T19:11:40.628Z,32
2017-06-03T19:14:05.245Z,20
2017-06-03T19:16:29.716Z,16
2017-06-03T19:18:54.314Z,8
2017-06-03T19:21:18.920Z,8
2017-06-03T19:23:43.498Z,4
2017-06-03T19:26:07.982Z,8
2017-06-03T19:28:32.483Z,4
2017-06-03T19:30:56.994Z,4
2017-06-03T19:33:21.560Z,0
2017-06-03T19:35:46.174Z,4
2017-06-03T19:38:10.745Z,4
2017-06-03T19:40:35.265Z,0
2017-06-03T19:42:51.336Z,0
2017-06-03T19:45:15.833Z,0
2017-06-03T19:49:42.312Z,0
2017-06-03T19:52:06.765Z,0
2017-06-03T19:54:31.278Z,0
2017-06-03T19:56:55.755Z,0
2017-06-03T19:59:20.239Z,0
2017-06-03T20:01:44.737Z,0
2017-06-03T20:04:09.227Z,0
2017-06-03T20:07:56.074Z,0
2017-06-03T20:10:20.540Z,0
2017-06-03T20:12:45.015Z,0
2017-06-03T20:15:09.513Z,0
2017-06-03T20:17:34.016Z,0
2017-06-03T20:19:58.500Z,0
2017-06-03T20:22:22.879Z,0
2017-06-03T20:27:51.164Z,0
2017-06-03T20:33:28.075Z,0
2017-06-03T20:35:38.540Z,0
2017-06-03T20:39:39.169Z,0
2017-06-03T20:41:41.194Z,0
2017-06-03T20:43:51.662Z,0
2017-06-03T20:47:52.258Z,0
2017-06-03T20:50:31.621Z,0
2017-06-03T20:52:57.034Z,0
2017-06-03T20:55:21.425Z,0
2017-06-03T20:57:45.816Z,0
2017-06-03T21:00:12.236Z,0
2017-06-03T21:02:36.641Z,0
2017-06-03T21:05:01.140Z,0
2017-06-03T21:07:25.612Z,0
2017-06-03T21:09:50.010Z,0
2017-06-03T21:12:14.413Z,0
2017-06-03T21:14:38.766Z,0
2017-06-03T21:18:39.517Z,0
2017-06-03T21:21:03.900Z,0
2017-06-03T21:23:19.742Z,0
2017-06-03T21:25:44.101Z,0
2017-06-03T21:28:08.472Z,0
2017-06-03T21:30:32.870Z,0
2017-06-03T21:32:48.718Z,0
2017-06-03T21:35:13.063Z,0
2017-06-03T21:39:13.535Z,0
2017-06-03T21:41:37.865Z,0
2017-06-03T21:44:02.127Z,0
2017-06-03T21:48:28.323Z,0
2017-06-03T21:50:53.724Z,0
2017-06-03T21:53:18.139Z,0
2017-06-03T21:55:42.381Z,0
2017-06-03T21:58:06.681Z,0
2017-06-03T22:00:30.966Z,0
2017-06-03T22:02:46.789Z,0
2017-06-03T22:05:11.143Z,0
2017-06-03T22:07:35.409Z,0
2017-06-03T22:09:59.712Z,0
2017-06-03T22:12:24.004Z,0
2017-06-03T22:14:48.342Z,0
2017-06-03T22:17:12.590Z,0
2017-06-03T22:19:36.837Z,0
2017-06-03T22:22:01.131Z,0
2017-06-03T22:24:25.412Z,0
2017-06-03T22:26:49.681Z,0
2017-06-03T22:29:13.976Z,0
2017-06-03T22:31:24.416Z,0
2017-06-03T22:33:48.749Z,0
2017-06-03T22:36:13.010Z,0
2017-06-03T22:38:37.303Z,0
2017-06-03T22:41:01.600Z,0
2017-06-03T22:43:25.777Z,0
2017-06-03T22:45:49.983Z,0
2017-06-03T22:48:14.153Z,0
2017-06-03T22:50:29.940Z,0
2017-06-03T22:52:54.124Z,0
2017-06-03T22:55:18.325Z,0
2017-06-03T22:57:42.496Z,0
2017-06-03T23:00:06.701Z,0
2017-06-03T23:04:36.131Z,0
2017-06-03T23:07:01.426Z,0
2017-06-03T23:09:25.589Z,0
2017-06-03T23:11:51.842Z,0
2017-06-03T23:14:31.679Z,0
2017-06-03T23:16:55.953Z,0
2017-06-03T23:19:22.089Z,0
2017-06-03T23:21:46.342Z,0
2017-06-03T23:24:03.070Z,0
2017-06-03T23:26:29.218Z,0
2017-06-03T23:29:02.129Z,0
2017-06-03T23:31:26.314Z,0
2017-06-03T23:33:51.500Z,0
2017-06-03T23:36:22.640Z,0
2017-06-03T23:38:46.888Z,0
2017-06-03T23:41:11.034Z,0
2017-06-03T23:43:36.215Z,0
2017-06-03T23:46:00.401Z,0
2017-06-03T23:50:20.077Z,0
2017-06-03T23:52:44.255Z,0
2017-06-03T23:55:08.469Z,0
2017-06-03T23:57:32.650Z,0
2017-06-03T23:59:56.839Z,0
